createdAt,value
2023-02-27T00:00:31.377Z,98389.50
2023-02-27T00:03:37.432Z,98383.09
2023-02-27T00:06:46.797Z,98391.25
2023-02-27T00:09:52.667Z,98395.56
2023-02-27T00:12:59.360Z,98388.13
2023-02-27T00:16:05.444Z,98398.31
2023-02-27T00:19:12.773Z,98397.50
2023-02-27T00:22:21.099Z,98394.84
2023-02-27T00:25:27.857Z,98400.06
2023-02-27T00:28:33.956Z,98404.19
2023-02-27T00:31:40.834Z,98411.75
2023-02-27T00:34:46.749Z,98398.13
2023-02-27T00:37:56.819Z,98404.94
2023-02-27T00:41:03.073Z,98397.66
2023-02-27T00:44:09.794Z,98401.13
2023-02-27T00:47:15.809Z,98399.53
2023-02-27T00:50:22.829Z,98397.03
2023-02-27T00:53:31.522Z,98394.91
2023-02-27T00:56:38.240Z,98391.94
2023-02-27T00:59:44.194Z,98387.13
2023-02-27T01:02:53.389Z,98388.41
2023-02-27T01:05:59.309Z,98387.78
2023-02-27T01:09:09.222Z,98394.97
2023-02-27T01:12:16.254Z,98399.06
2023-02-27T01:15:24.388Z,98394.75
2023-02-27T01:18:30.319Z,98408.75
2023-02-27T01:21:37.217Z,98405.19
2023-02-27T01:24:49.008Z,98411.28
2023-02-27T01:27:55.764Z,98414.16
2023-02-27T01:31:01.777Z,98416.13
2023-02-27T01:34:08.607Z,98423.75
2023-02-27T01:37:14.618Z,98425.16
2023-02-27T01:40:25.744Z,98425.72
2023-02-27T01:43:31.932Z,98426.72
2023-02-27T01:46:38.967Z,98426.28
2023-02-27T01:49:45.068Z,98420.66
2023-02-27T01:52:59.314Z,98431.84
2023-02-27T01:56:16.277Z,98442.25
2023-02-27T01:59:25.119Z,98442.78
2023-02-27T02:02:40.586Z,98441.91
2023-02-27T02:05:50.115Z,98447.38
2023-02-27T02:09:01.042Z,98450.53
2023-02-27T02:12:14.936Z,98452.56
2023-02-27T02:15:33.197Z,98455.59
2023-02-27T02:18:58.046Z,98452.16
2023-02-27T02:22:50.176Z,98448.41
2023-02-27T02:26:33.841Z,98456.59
2023-02-27T02:30:41.409Z,98463.28
2023-02-27T02:34:34.073Z,98469.03
2023-02-27T02:38:31.149Z,98476.59
2023-02-27T02:42:01.181Z,98482.56
2023-02-27T02:45:23.600Z,98478.25
2023-02-27T02:48:40.362Z,98486.75
2023-02-27T02:51:59.715Z,98484.75
2023-02-27T02:55:22.857Z,98470.50
2023-02-27T02:58:39.493Z,98475.31
2023-02-27T03:01:55.467Z,98483.44
2023-02-27T03:05:10.833Z,98469.13
2023-02-27T03:08:27.704Z,98470.44
2023-02-27T03:11:47.126Z,98472.97
2023-02-27T03:15:06.503Z,98473.06
2023-02-27T03:18:21.811Z,98472.78
2023-02-27T03:21:39.401Z,98467.13
2023-02-27T03:24:52.327Z,98473.00
2023-02-27T03:28:11.185Z,98469.97
2023-02-27T03:31:29.417Z,98484.81
2023-02-27T03:34:42.010Z,98479.13
2023-02-27T03:38:05.313Z,98483.88
2023-02-27T03:41:29.478Z,98482.81
2023-02-27T03:45:06.313Z,98485.19
2023-02-27T03:48:13.738Z,98486.97
2023-02-27T03:51:25.746Z,98490.06
2023-02-27T03:54:42.789Z,98489.38
2023-02-27T03:57:53.830Z,98499.91
2023-02-27T04:01:03.574Z,98503.41
2023-02-27T04:04:17.358Z,98498.66
2023-02-27T04:08:29.874Z,98506.09
2023-02-27T04:11:57.996Z,98514.06
2023-02-27T04:15:26.273Z,98517.78
2023-02-27T04:19:01.569Z,98527.63
2023-02-27T04:22:27.100Z,98525.94
2023-02-27T04:25:57.543Z,98531.06
2023-02-27T04:29:19.775Z,98539.19
2023-02-27T04:32:40.146Z,98531.34
2023-02-27T04:35:57.681Z,98536.78
2023-02-27T04:39:11.233Z,98531.53
2023-02-27T04:42:26.257Z,98529.13
2023-02-27T04:45:42.599Z,98542.31
2023-02-27T04:49:00.857Z,98541.22
2023-02-27T04:52:34.875Z,98540.72
2023-02-27T04:55:51.755Z,98538.69
2023-02-27T04:59:06.550Z,98541.88
2023-02-27T05:02:25.085Z,98551.19
2023-02-27T05:05:38.554Z,98546.25
2023-02-27T05:09:02.010Z,98554.75
2023-02-27T05:12:18.442Z,98555.09
2023-02-27T05:15:36.536Z,98562.19
2023-02-27T05:18:42.976Z,98559.56
2023-02-27T05:22:05.941Z,98566.31
2023-02-27T05:25:27.037Z,98573.47
2023-02-27T05:28:48.863Z,98569.47
2023-02-27T05:32:08.009Z,98572.56
2023-02-27T05:35:29.275Z,98559.56
2023-02-27T05:38:43.823Z,98571.34
2023-02-27T05:42:01.657Z,98569.28
2023-02-27T05:45:16.339Z,98572.63
2023-02-27T05:48:32.912Z,98582.53
2023-02-27T05:51:46.045Z,98583.47
2023-02-27T05:55:08.683Z,98590.56
2023-02-27T05:58:28.688Z,98585.72
2023-02-27T06:01:36.508Z,98597.00
2023-02-27T06:04:47.629Z,98604.56
2023-02-27T06:07:54.623Z,98604.19
2023-02-27T06:11:00.696Z,98607.84
2023-02-27T06:14:09.957Z,98611.28
2023-02-27T06:17:15.831Z,98609.41
2023-02-27T06:20:22.812Z,98613.72
2023-02-27T06:23:28.790Z,98612.88
2023-02-27T06:26:35.497Z,98611.28
2023-02-27T06:29:44.034Z,98611.84
2023-02-27T06:32:54.491Z,98613.50
2023-02-27T06:36:00.590Z,98620.88
2023-02-27T06:39:11.831Z,98621.25
2023-02-27T06:42:28.178Z,98622.28
2023-02-27T06:45:38.177Z,98629.75
2023-02-27T06:48:44.953Z,98626.41
2023-02-27T06:51:52.206Z,98625.84
2023-02-27T06:55:02.507Z,98628.97
2023-02-27T06:58:09.165Z,98640.19
2023-02-27T07:01:18.262Z,98641.22
2023-02-27T07:04:25.471Z,98643.28
2023-02-27T07:07:31.335Z,98645.97
2023-02-27T07:10:44.268Z,98639.81
2023-02-27T07:13:50.337Z,98645.75
2023-02-27T07:17:03.437Z,98646.13
2023-02-27T07:20:13.328Z,98642.78
2023-02-27T07:23:20.077Z,98652.31
2023-02-27T07:26:26.288Z,98648.31
2023-02-27T07:29:33.236Z,98652.59
2023-02-27T07:32:41.754Z,98653.50
2023-02-27T07:35:48.953Z,98650.38
2023-02-27T07:38:54.819Z,98647.75
2023-02-27T07:42:01.508Z,98643.44
2023-02-27T07:45:08.718Z,98650.09
2023-02-27T07:48:18.108Z,98659.34
2023-02-27T07:51:24.811Z,98661.75
2023-02-27T07:54:33.238Z,98669.75
2023-02-27T07:57:39.989Z,98670.91
2023-02-27T08:00:46.894Z,98674.91
2023-02-27T08:03:55.585Z,98678.47
2023-02-27T08:07:08.644Z,98676.19
2023-02-27T08:10:16.930Z,98678.94
2023-02-27T08:13:42.404Z,98698.38
2023-02-27T08:16:49.481Z,98693.56
2023-02-27T08:20:05.020Z,98685.38
2023-02-27T08:23:12.086Z,98695.38
2023-02-27T08:26:19.068Z,98698.00
2023-02-27T08:29:31.176Z,98704.94
2023-02-27T08:32:39.039Z,98700.72
2023-02-27T08:35:47.728Z,98708.41
2023-02-27T08:38:55.464Z,98721.94
2023-02-27T08:42:01.492Z,98714.59
2023-02-27T08:45:10.105Z,98716.34
2023-02-27T08:48:17.454Z,98714.22
2023-02-27T08:51:27.117Z,98720.88
2023-02-27T08:54:33.669Z,98718.94
2023-02-27T08:57:40.405Z,98720.19
2023-02-27T09:00:46.442Z,98719.25
2023-02-27T09:03:53.403Z,98726.81
2023-02-27T09:07:02.058Z,98728.31
2023-02-27T09:10:10.611Z,98734.63
2023-02-27T09:13:16.747Z,98737.31
2023-02-27T09:16:25.845Z,98750.41
2023-02-27T09:19:32.158Z,98738.56
2023-02-27T09:22:42.919Z,98735.63
2023-02-27T09:25:50.786Z,98737.31
2023-02-27T09:28:57.472Z,98735.09
2023-02-27T09:32:03.415Z,98738.56
2023-02-27T09:35:12.416Z,98739.22
2023-02-27T09:38:20.879Z,98740.19
2023-02-27T09:41:51.270Z,98742.91
2023-02-27T09:45:05.943Z,98748.69
2023-02-27T09:48:30.173Z,98747.53
2023-02-27T09:51:36.193Z,98752.28
2023-02-27T09:54:45.648Z,98758.72
2023-02-27T09:58:02.441Z,98757.84
2023-02-27T10:01:19.433Z,98753.81
2023-02-27T10:04:44.088Z,98755.84
2023-02-27T10:08:06.609Z,98757.47
2023-02-27T10:11:25.118Z,98757.84
2023-02-27T10:14:45.706Z,98754.59
2023-02-27T10:18:09.513Z,98760.28
2023-02-27T10:21:33.807Z,98757.59
2023-02-27T10:24:50.472Z,98762.53
2023-02-27T10:28:16.093Z,98764.41
2023-02-27T10:31:30.113Z,98760.19
2023-02-27T10:34:40.519Z,98761.34
2023-02-27T10:37:55.155Z,98775.91
2023-02-27T10:41:05.364Z,98770.91
2023-02-27T10:44:19.108Z,98760.31
2023-02-27T10:47:29.908Z,98760.88
2023-02-27T10:50:40.023Z,98757.19
2023-02-27T10:53:46.699Z,98755.38
2023-02-27T10:56:56.944Z,98751.53
2023-02-27T11:00:25.502Z,98745.94
2023-02-27T11:03:40.943Z,98746.66
2023-02-27T11:06:55.788Z,98758.34
2023-02-27T11:10:20.133Z,98758.38
2023-02-27T11:13:29.233Z,98749.75
2023-02-27T11:16:52.622Z,98751.63
2023-02-27T11:20:01.539Z,98756.31
2023-02-27T11:23:10.712Z,98747.28
2023-02-27T11:26:25.381Z,98749.19
2023-02-27T11:29:31.406Z,98753.81
2023-02-27T11:32:51.519Z,98754.63
2023-02-27T11:36:00.997Z,98751.84
2023-02-27T11:39:08.044Z,98754.97
2023-02-27T11:42:29.633Z,98754.53
2023-02-27T11:46:04.685Z,98754.31
2023-02-27T11:49:37.446Z,98762.84
2023-02-27T11:52:56.109Z,98746.66
2023-02-27T11:56:08.723Z,98761.22
2023-02-27T11:59:38.285Z,98758.13
2023-02-27T12:02:59.504Z,98757.41
2023-02-27T12:06:22.274Z,98759.75
2023-02-27T12:09:55.833Z,98770.38
2023-02-27T12:13:14.607Z,98765.34
2023-02-27T12:16:33.068Z,98771.34
2023-02-27T12:19:53.416Z,98762.84
2023-02-27T12:23:16.982Z,98766.28
2023-02-27T12:26:32.060Z,98771.00
2023-02-27T12:29:48.559Z,98777.59
2023-02-27T12:33:07.037Z,98779.91
2023-02-27T12:36:17.618Z,98776.94
2023-02-27T12:39:29.063Z,98780.81
2023-02-27T12:43:13.433Z,98778.16
2023-02-27T12:46:38.720Z,98768.34
2023-02-27T12:49:55.746Z,98777.41
2023-02-27T12:53:35.284Z,98770.13
2023-02-27T12:57:04.126Z,98782.97
2023-02-27T13:00:21.495Z,98782.03
2023-02-27T13:03:39.485Z,98781.19
2023-02-27T13:06:58.220Z,98797.69
2023-02-27T13:10:18.085Z,98788.91
2023-02-27T13:13:41.201Z,98792.66
2023-02-27T13:16:59.054Z,98791.38
2023-02-27T13:20:32.887Z,98795.00
2023-02-27T13:23:58.710Z,98797.56
2023-02-27T13:27:22.786Z,98807.69
2023-02-27T13:30:41.146Z,98795.63
2023-02-27T13:34:09.522Z,98793.03
2023-02-27T13:37:26.681Z,98786.38
2023-02-27T13:40:42.568Z,98791.81
2023-02-27T13:43:52.441Z,98794.06
2023-02-27T13:47:43.757Z,98795.78
2023-02-27T13:50:55.417Z,98796.25
2023-02-27T13:54:26.298Z,98799.66
2023-02-27T13:57:40.060Z,98802.78
2023-02-27T14:00:58.919Z,98808.78
2023-02-27T14:04:17.433Z,98809.22
2023-02-27T14:07:29.943Z,98804.63
2023-02-27T14:10:40.119Z,98804.63
2023-02-27T14:14:05.586Z,98810.38
2023-02-27T14:17:17.119Z,98806.69
2023-02-27T14:20:54.672Z,98806.56
2023-02-27T14:24:01.042Z,98813.16
2023-02-27T14:27:20.331Z,98815.66
2023-02-27T14:30:35.134Z,98820.75
2023-02-27T14:33:49.223Z,98830.69
2023-02-27T14:37:04.130Z,98827.63
2023-02-27T14:40:29.173Z,98835.16
2023-02-27T14:43:43.362Z,98835.59
2023-02-27T14:46:50.445Z,98837.25
2023-02-27T14:49:56.997Z,98841.28
2023-02-27T14:53:08.762Z,98841.50
2023-02-27T14:56:22.951Z,98856.50
2023-02-27T14:59:34.252Z,98851.22
2023-02-27T15:02:41.210Z,98856.47
2023-02-27T15:05:50.313Z,98858.25
2023-02-27T15:09:00.085Z,98854.03
2023-02-27T15:12:08.550Z,98854.63
2023-02-27T15:15:24.449Z,98861.81
2023-02-27T15:18:31.368Z,98865.47
2023-02-27T15:21:44.387Z,98871.38
2023-02-27T15:24:55.120Z,98871.09
2023-02-27T15:28:07.380Z,98871.75
2023-02-27T15:31:27.318Z,98871.19
2023-02-27T15:34:34.019Z,98877.75
2023-02-27T15:37:43.854Z,98879.13
2023-02-27T15:40:53.317Z,98877.16
2023-02-27T15:44:01.068Z,98887.28
2023-02-27T15:47:09.859Z,98888.38
2023-02-27T15:50:31.575Z,98888.00
2023-02-27T15:53:41.884Z,98891.09
2023-02-27T15:56:53.029Z,98897.34
2023-02-27T16:00:04.711Z,98902.88
2023-02-27T16:03:30.966Z,98902.59
2023-02-27T16:06:42.496Z,98900.16
2023-02-27T16:09:55.957Z,98910.16
2023-02-27T16:13:24.172Z,98907.63
2023-02-27T16:16:36.217Z,98917.94
2023-02-27T16:19:46.085Z,98914.09
2023-02-27T16:23:06.981Z,98921.31
2023-02-27T16:26:32.146Z,98925.97
2023-02-27T16:29:48.971Z,98926.63
2023-02-27T16:33:04.493Z,98929.97
2023-02-27T16:36:25.209Z,98931.81
2023-02-27T16:39:31.525Z,98926.78
2023-02-27T16:42:38.571Z,98930.97
2023-02-27T16:45:56.605Z,98937.88
2023-02-27T16:49:18.875Z,98938.34
2023-02-27T16:52:25.819Z,98942.63
2023-02-27T16:55:34.551Z,98954.56
2023-02-27T16:58:40.752Z,98957.34
2023-02-27T17:01:50.451Z,98948.22
2023-02-27T17:04:56.574Z,98954.56
2023-02-27T17:08:03.686Z,98963.41
2023-02-27T17:11:10.389Z,98960.28
2023-02-27T17:14:17.285Z,98960.72
2023-02-27T17:17:25.903Z,98968.16
2023-02-27T17:20:33.037Z,98972.44
2023-02-27T17:23:39.002Z,98972.22
2023-02-27T17:26:46.467Z,98977.28
2023-02-27T17:29:52.535Z,98971.81
2023-02-27T17:33:04.178Z,98977.28
2023-02-27T17:36:13.951Z,98979.16
2023-02-27T17:39:20.895Z,98985.25
2023-02-27T17:42:27.443Z,98986.34
2023-02-27T17:45:34.512Z,98989.91
2023-02-27T17:48:43.254Z,98989.78
2023-02-27T17:51:50.605Z,98986.75
2023-02-27T17:55:05.038Z,98994.88
2023-02-27T17:58:12.868Z,98990.31
2023-02-27T18:01:26.658Z,99002.13
2023-02-27T18:04:37.319Z,99007.84
2023-02-27T18:07:44.193Z,99005.94
2023-02-27T18:10:51.867Z,99013.41
2023-02-27T18:14:00.816Z,99009.44
2023-02-27T18:17:13.345Z,99010.69
2023-02-27T18:20:22.276Z,99019.56
2023-02-27T18:23:29.460Z,99023.53
2023-02-27T18:26:36.732Z,99021.69
2023-02-27T18:29:43.963Z,99027.56
2023-02-27T18:32:50.069Z,99022.94
2023-02-27T18:35:59.756Z,99020.06
2023-02-27T18:39:08.002Z,99033.53
2023-02-27T18:42:17.022Z,99030.56
2023-02-27T18:45:23.572Z,99026.03
2023-02-27T18:48:36.127Z,99033.94
2023-02-27T18:51:50.967Z,99039.19
2023-02-27T18:54:58.017Z,99042.38
2023-02-27T18:58:06.042Z,99040.88
2023-02-27T19:01:23.982Z,99051.00
2023-02-27T19:04:30.294Z,99053.28
2023-02-27T19:07:39.970Z,99059.94
2023-02-27T19:10:46.886Z,99059.34
2023-02-27T19:13:55.216Z,99063.09
2023-02-27T19:17:01.859Z,99059.63
2023-02-27T19:20:14.563Z,99059.03
2023-02-27T19:23:23.235Z,99067.38
2023-02-27T19:26:30.946Z,99072.28
2023-02-27T19:29:37.136Z,99068.06
2023-02-27T19:32:44.229Z,99069.66
2023-02-27T19:35:50.482Z,99079.34
2023-02-27T19:39:00.907Z,99081.72
2023-02-27T19:42:07.241Z,99077.34
2023-02-27T19:45:15.029Z,99090.25
2023-02-27T19:48:21.282Z,99090.47
2023-02-27T19:51:28.747Z,99093.03
2023-02-27T19:54:37.628Z,99089.91
2023-02-27T19:57:44.648Z,99087.69
2023-02-27T20:00:51.629Z,99091.00
2023-02-27T20:03:59.577Z,99095.88
2023-02-27T20:07:05.754Z,99097.75
2023-02-27T20:10:16.350Z,99095.53
2023-02-27T20:13:22.705Z,99102.31
2023-02-27T20:16:34.598Z,99103.97
2023-02-27T20:19:41.762Z,99113.00
2023-02-27T20:22:49.470Z,99115.44
2023-02-27T20:25:58.319Z,99113.84
2023-02-27T20:29:09.775Z,99119.34
2023-02-27T20:32:15.832Z,99114.25
2023-02-27T20:35:22.802Z,99125.41
2023-02-27T20:38:30.092Z,99124.59
2023-02-27T20:41:40.554Z,99118.41
2023-02-27T20:44:46.794Z,99124.13
2023-02-27T20:47:53.910Z,99114.78
2023-02-27T20:50:59.835Z,99123.47
2023-02-27T20:54:11.102Z,99120.69
2023-02-27T20:57:19.644Z,99120.19
2023-02-27T21:00:28.036Z,99115.44
2023-02-27T21:03:42.990Z,99126.59
2023-02-27T21:06:49.823Z,99110.56
2023-02-27T21:09:55.668Z,99119.41
2023-02-27T21:13:05.049Z,99122.03
2023-02-27T21:16:15.637Z,99117.41
2023-02-27T21:19:22.336Z,99124.72
2023-02-27T21:22:28.225Z,99115.03
2023-02-27T21:25:34.917Z,99116.13
2023-02-27T21:28:47.861Z,99119.34
2023-02-27T21:31:55.655Z,99120.94
2023-02-27T21:35:01.575Z,99119.56
2023-02-27T21:38:08.354Z,99120.75
2023-02-27T21:41:17.579Z,99124.72
2023-02-27T21:44:29.875Z,99125.72
2023-02-27T21:47:35.843Z,99123.47
2023-02-27T21:50:43.064Z,99119.50
2023-02-27T21:53:50.115Z,99127.84
2023-02-27T21:56:58.233Z,99131.50
2023-02-27T22:00:11.460Z,99131.84
2023-02-27T22:03:18.257Z,99138.50
2023-02-27T22:06:27.567Z,99137.72
2023-02-27T22:09:34.664Z,99129.88
2023-02-27T22:12:40.521Z,99137.72
2023-02-27T22:15:50.068Z,99134.94
2023-02-27T22:18:56.704Z,99136.38
2023-02-27T22:22:03.509Z,99134.44
2023-02-27T22:25:10.295Z,99131.31
2023-02-27T22:28:16.910Z,99131.97
2023-02-27T22:31:29.421Z,99130.81
2023-02-27T22:34:36.767Z,99130.13
2023-02-27T22:37:44.073Z,99125.59
2023-02-27T22:40:50.730Z,99130.66
2023-02-27T22:43:57.356Z,99136.72
2023-02-27T22:47:06.722Z,99129.38
2023-02-27T22:50:19.877Z,99143.22
2023-02-27T22:53:26.850Z,99146.16
2023-02-27T22:56:34.470Z,99130.66
2023-02-27T22:59:41.469Z,99142.31
2023-02-27T23:02:50.170Z,99137.56
2023-02-27T23:05:56.831Z,99133.69
2023-02-27T23:09:04.897Z,99134.69
2023-02-27T23:12:11.811Z,99135.13
2023-02-27T23:15:17.838Z,99142.44
2023-02-27T23:18:27.726Z,99139.00
2023-02-27T23:21:38.789Z,99139.91
2023-02-27T23:24:45.437Z,99145.34
2023-02-27T23:27:51.462Z,99150.22
2023-02-27T23:30:59.744Z,99153.34
2023-02-27T23:34:13.660Z,99151.06
2023-02-27T23:37:20.265Z,99147.19
2023-02-27T23:40:31.543Z,99150.75
2023-02-27T23:43:38.508Z,99151.91
2023-02-27T23:46:44.510Z,99148.53
2023-02-27T23:49:53.795Z,99146.59
2023-02-27T23:53:05.420Z,99149.16
2023-02-27T23:56:18.587Z,99145.28
2023-02-27T23:59:24.495Z,99136.31
